Carcarana, Argentina
Current Conditions -  °F | °C
As of 5:00 AM on Sunday 21 Dec 2014 (Local Time) from SAAR Reporting Station
Light Rain Light Rain  
Wind Chill: 64°   Ceiling: 4000
Heat Index: 64°   Visibility: 4mi
Dew Point: 61°   Wind: 15mph
Humidity: 88%   Direction: 160°SSE
Pressure: 29.71"   Gusts: NA
Location:  32.85°S, 61.15°W
Report Text: SAAR 210800Z 16013KT 7000 -RA SCT015 SCT028OVC040 18/16 Q1006
Loading
Personal Weather Stations






























Interactive Weather Map New forecast layout! Learn more

10-Day Weather Forecast

Advertisements
Track Severe Weather on mobile